Time;durP1;ratioP1;P1;durP2;ratioP2;P2;SDS_P1;SDS_P2;PMS_P1;PMS_P2;Temp;Humidity;BMP_temperature;BMP_pressure;BME280_temperature;BME280_humidity;BME280_pressure;Samples;Min_cycle;Max_cycle;Signal;HPM_P1;HPM_P2
2021/09/22 00:01:43;;;;;;;4.33;3.43;;;;;;;11.36;100.00;100069.95;1804691;78;22555;-67
2021/09/22 00:04:10;;;;;;;7.87;4.57;;;;;;;11.45;100.00;100062.29;1800784;77;21385;-73
2021/09/22 00:06:36;;;;;;;4.10;3.33;;;;;;;11.39;100.00;100067.77;1799489;79;21333;-67
2021/09/22 00:09:03;;;;;;;4.60;3.50;;;;;;;11.23;100.00;100062.87;1801381;78;21464;-66
2021/09/22 00:11:31;;;;;;;6.43;3.97;;;;;;;11.35;100.00;100061.33;1794760;78;21110;-67
2021/09/22 00:13:57;;;;;;;4.97;3.80;;;;;;;11.37;100.00;100063.26;1800831;78;21352;-71
2021/09/22 00:16:25;;;;;;;5.17;4.27;;;;;;;11.37;100.00;100061.15;1797023;78;22031;-65
2021/09/22 00:18:52;;;;;;;4.30;3.67;;;;;;;11.28;100.00;100063.09;1800311;78;21214;-66
2021/09/22 00:21:20;;;;;;;4.27;3.67;;;;;;;11.28;100.00;100061.78;1801964;78;21820;-71
2021/09/22 00:23:47;;;;;;;7.17;4.50;;;;;;;11.31;100.00;100066.63;1800365;78;21117;-68
2021/09/22 00:26:16;;;;;;;5.20;4.13;;;;;;;11.27;100.00;100065.40;1797318;78;21102;-66
2021/09/22 00:28:43;;;;;;;6.00;4.30;;;;;;;10.92;100.00;100064.08;1801295;78;21215;-66
2021/09/22 00:31:11;;;;;;;6.17;4.47;;;;;;;10.91;100.00;100061.64;1800235;78;21123;-65
2021/09/22 00:33:38;;;;;;;4.70;3.80;;;;;;;10.94;100.00;100065.98;1796068;78;21314;-67
2021/09/22 00:36:06;;;;;;;5.20;4.10;;;;;;;10.90;100.00;100066.05;1799851;78;21204;-65
2021/09/22 00:38:32;;;;;;;4.97;4.10;;;;;;;11.15;100.00;100058.61;1798273;79;22336;-65
2021/09/22 00:40:59;;;;;;;6.83;4.13;;;;;;;10.95;100.00;100058.48;1802553;78;21231;-66
2021/09/22 00:43:25;;;;;;;5.60;4.20;;;;;;;10.98;100.00;100058.58;1800021;79;21141;-69
2021/09/22 00:45:52;;;;;;;4.63;3.63;;;;;;;11.04;100.00;100053.92;1791401;79;21159;-75
2021/09/22 00:48:21;;;;;;;4.97;4.20;;;;;;;11.09;100.00;100055.45;1802201;78;21386;-65
2021/09/22 00:50:50;;;;;;;5.15;4.25;;;;;;;11.25;100.00;100050.45;1795156;78;21796;-65
2021/09/22 00:53:17;;;;;;;4.27;3.63;;;;;;;11.35;100.00;100049.58;1792454;78;21455;-76
2021/09/22 00:55:44;;;;;;;5.90;4.40;;;;;;;11.25;100.00;100049.62;1773864;79;21313;-72
2021/09/22 00:58:11;;;;;;;5.20;4.20;;;;;;;11.49;100.00;100046.55;1800701;79;21127;-66
2021/09/22 01:00:38;;;;;;;5.83;3.77;;;;;;;11.45;100.00;100045.33;1802502;79;21198;-65
2021/09/22 01:03:05;;;;;;;5.27;3.90;;;;;;;11.63;100.00;100047.39;1792394;78;21281;-63
2021/09/22 01:05:32;;;;;;;5.27;4.47;;;;;;;11.77;100.00;100048.26;1802950;78;21213;-68
2021/09/22 01:08:01;;;;;;;5.93;4.87;;;;;;;11.79;100.00;100044.46;1797387;78;21770;-65
2021/09/22 01:10:28;;;;;;;5.27;4.33;;;;;;;11.98;100.00;100038.22;1797710;78;21234;-64
2021/09/22 01:12:57;;;;;;;4.87;4.03;;;;;;;11.99;100.00;100041.13;1800992;79;21089;-64
2021/09/22 01:15:31;;;;;;;6.10;4.30;;;;;;;12.14;100.00;100043.87;1795555;79;21158;-76
2021/09/22 01:18:00;;;;;;;8.30;4.17;;;;;;;12.07;100.00;100039.63;1783142;79;21201;-64
2021/09/22 01:20:30;;;;;;;5.07;4.20;;;;;;;12.01;100.00;100040.41;1791652;78;21888;-64
2021/09/22 01:23:00;;;;;;;7.47;5.10;;;;;;;11.93;100.00;100040.92;1802032;78;21257;-64
2021/09/22 01:25:28;;;;;;;5.10;4.37;;;;;;;11.95;100.00;100042.02;1795183;78;21215;-74
2021/09/22 01:28:00;;;;;;;5.23;4.30;;;;;;;11.86;100.00;100044.52;1793606;78;21208;-74
2021/09/22 01:30:29;;;;;;;5.37;4.20;;;;;;;11.68;100.00;100046.33;1788888;78;21268;-63
2021/09/22 01:33:00;;;;;;;5.40;4.20;;;;;;;11.57;100.00;100044.27;1802263;78;21237;-66
2021/09/22 01:35:36;;;;;;;5.60;4.73;;;;;;;11.66;100.00;100041.78;1796687;78;21797;-64
2021/09/22 01:38:11;;;;;;;5.93;4.93;;;;;;;11.68;100.00;100042.41;1801563;79;21230;-64
2021/09/22 01:40:40;;;;;;;5.90;4.90;;;;;;;11.57;100.00;100038.55;1799802;78;21187;-65
2021/09/22 01:43:07;;;;;;;5.03;4.10;;;;;;;11.66;100.00;100039.17;1798393;79;21242;-64
2021/09/22 01:45:37;;;;;;;6.40;4.60;;;;;;;11.81;100.00;100039.83;1795785;78;21208;-71
2021/09/22 01:48:07;;;;;;;6.33;4.63;;;;;;;11.77;100.00;100036.50;1798332;78;21251;-63
2021/09/22 01:50:35;;;;;;;6.17;4.83;;;;;;;11.67;100.00;100036.39;1800102;78;21954;-68
2021/09/22 01:53:04;;;;;;;7.20;4.90;;;;;;;11.80;100.00;100036.13;1794437;78;21925;-64
2021/09/22 01:55:31;;;;;;;5.50;4.43;;;;;;;11.95;100.00;100032.08;1799289;79;21246;-75
2021/09/22 01:58:02;;;;;;;5.60;4.43;;;;;;;12.08;100.00;100032.89;1793190;79;22619;-64
2021/09/22 02:00:34;;;;;;;6.27;5.10;;;;;;;11.99;100.00;100035.91;1784031;79;21284;-73
2021/09/22 02:03:01;;;;;;;6.47;5.57;;;;;;;11.83;100.00;100037.88;1798452;78;21344;-64
2021/09/22 02:05:30;;;;;;;6.37;5.20;;;;;;;12.14;100.00;100031.31;1802420;77;21823;-65
2021/09/22 02:07:59;;;;;;;5.33;4.67;;;;;;;12.15;100.00;100035.02;1768241;78;21575;-63
2021/09/22 02:10:27;;;;;;;5.20;4.27;;;;;;;12.20;100.00;100038.37;1776171;78;21645;-75
2021/09/22 02:12:55;;;;;;;5.43;4.50;;;;;;;12.30;100.00;100028.81;1779653;78;21407;-64
2021/09/22 02:15:22;;;;;;;6.17;4.17;;;;;;;12.29;100.00;100028.02;1776011;78;21695;-67
2021/09/22 02:17:52;;;;;;;6.30;4.63;;;;;;;12.22;100.00;100026.40;1758275;78;21819;-64
2021/09/22 02:20:20;;;;;;;6.70;5.53;;;;;;;12.26;100.00;100023.18;1777391;78;21264;-71
2021/09/22 02:22:51;;;;;;;7.70;5.03;;;;;;;12.11;100.00;100028.58;1777480;78;21196;-63
2021/09/22 02:25:18;;;;;;;6.33;4.80;;;;;;;12.17;100.00;100027.00;1779503;78;21001;-74
2021/09/22 02:27:46;;;;;;;5.03;4.20;;;;;;;12.16;100.00;100031.94;1757477;78;21268;-64
2021/09/22 02:30:17;;;;;;;6.20;4.73;;;;;;;12.13;100.00;100027.09;1778652;78;21198;-63
2021/09/22 02:32:46;;;;;;;6.37;4.63;;;;;;;12.19;100.00;100027.59;1778474;78;21173;-64
2021/09/22 02:35:13;;;;;;;8.47;5.00;;;;;;;12.20;100.00;100031.00;1781101;77;21783;-74
2021/09/22 02:37:55;;;;;;;5.13;4.63;;;;;;;12.07;100.00;100027.88;1774562;78;22185;-74
2021/09/22 02:40:27;;;;;;;6.43;4.90;;;;;;;11.92;100.00;100035.38;1767420;78;21132;-64
2021/09/22 02:42:53;;;;;;;5.80;4.67;;;;;;;11.95;100.00;100034.69;1779588;78;21605;-63
2021/09/22 02:45:20;;;;;;;5.50;4.57;;;;;;;11.95;100.00;100034.69;1778352;78;21261;-74
2021/09/22 02:47:47;;;;;;;6.07;4.97;;;;;;;11.91;100.00;100038.20;1752324;78;21275;-74
2021/09/22 02:50:17;;;;;;;6.60;5.60;;;;;;;11.97;100.00;100036.59;1778626;78;21155;-65
2021/09/22 02:52:46;;;;;;;6.77;4.80;;;;;;;11.96;100.00;100042.82;1780647;78;21787;-64
2021/09/22 02:55:14;;;;;;;7.43;4.77;;;;;;;11.89;100.00;100044.10;1778981;78;21205;-72
2021/09/22 02:57:43;;;;;;;7.33;5.53;;;;;;;11.91;100.00;100040.30;1774511;78;21213;-62
2021/09/22 03:00:12;;;;;;;6.23;5.10;;;;;;;11.59;100.00;100046.17;1778106;78;21692;31
2021/09/22 03:02:39;;;;;;;6.73;5.40;;;;;;;11.74;100.00;100041.61;1717572;82;21371;-64
2021/09/22 03:05:09;;;;;;;6.10;4.93;;;;;;;11.77;100.00;100042.53;1716713;82;21140;-73
2021/09/22 03:07:36;;;;;;;6.23;4.50;;;;;;;11.87;100.00;100036.48;1690888;83;21315;-74
2021/09/22 03:10:04;;;;;;;6.20;4.13;;;;;;;11.75;100.00;100041.94;1693490;83;21323;-63
2021/09/22 03:12:31;;;;;;;6.57;4.77;;;;;;;11.85;100.00;100039.77;1696360;82;22435;-64
2021/09/22 03:14:59;;;;;;;5.97;5.37;;;;;;;11.79;100.00;100041.84;1695942;82;21388;-65
2021/09/22 03:17:28;;;;;;;6.00;4.70;;;;;;;11.80;100.00;100037.42;1694992;82;21208;-74
2021/09/22 03:19:57;;;;;;;5.30;4.70;;;;;;;11.73;100.00;100045.73;1695541;82;21694;-63
2021/09/22 03:22:24;;;;;;;5.13;4.40;;;;;;;11.86;100.00;100046.63;1695482;83;21220;-64
2021/09/22 03:25:07;;;;;;;5.50;4.37;;;;;;;11.90;100.00;100050.95;1695906;82;21842;-66
2021/09/22 03:27:35;;;;;;;7.40;5.20;;;;;;;11.90;100.00;100050.45;1701747;82;21366;-67
2021/09/22 03:30:06;;;;;;;7.47;5.47;;;;;;;11.98;100.00;100046.86;1699008;82;21356;-65
2021/09/22 03:32:33;;;;;;;5.77;4.03;;;;;;;11.96;100.00;100046.74;1684396;82;21212;-65
2021/09/22 03:35:00;;;;;;;5.70;4.67;;;;;;;12.05;100.00;100045.58;1696561;82;21191;-62
2021/09/22 03:37:27;;;;;;;6.70;5.27;;;;;;;12.13;100.00;100046.69;1688884;83;21228;-70
2021/09/22 03:39:53;;;;;;;5.73;4.93;;;;;;;12.14;100.00;100050.41;1696468;82;21258;-62
2021/09/22 03:42:23;;;;;;;5.20;4.27;;;;;;;12.20;100.00;100050.13;1696732;82;21339;-63
2021/09/22 03:44:51;;;;;;;5.40;4.67;;;;;;;12.07;100.00;100051.39;1694957;82;21238;-62
2021/09/22 03:47:18;;;;;;;6.03;5.20;;;;;;;12.09;100.00;100057.23;1698198;82;21662;-69
2021/09/22 03:49:46;;;;;;;6.33;4.90;;;;;;;12.08;100.00;100056.41;1666101;84;21821;-62
2021/09/22 03:52:19;;;;;;;7.00;5.00;;;;;;;12.13;100.00;100058.45;1684531;83;21802;-65
2021/09/22 03:54:46;;;;;;;7.63;3.80;;;;;;;12.12;100.00;100050.29;1698045;83;21291;-63
2021/09/22 03:57:13;;;;;;;5.23;4.70;;;;;;;12.07;100.00;100052.19;1697784;82;21178;-63
2021/09/22 03:59:41;;;;;;;5.20;4.43;;;;;;;12.12;100.00;100051.59;1696823;82;21197;-64
2021/09/22 04:02:07;;;;;;;5.23;4.50;;;;;;;12.21;100.00;100060.08;1716890;81;21575;-63
2021/09/22 04:04:35;;;;;;;5.40;4.47;;;;;;;12.04;100.00;100060.92;1727874;81;21311;-67
2021/09/22 04:07:03;;;;;;;5.97;4.60;;;;;;;12.19;100.00;100053.72;1729208;81;21646;-64
2021/09/22 04:09:30;;;;;;;5.77;4.73;;;;;;;12.13;100.00;100053.23;1724191;81;21148;-71
2021/09/22 04:11:59;;;;;;;6.63;4.87;;;;;;;12.13;100.00;100050.61;1717901;82;22419;-65
2021/09/22 04:14:27;;;;;;;6.43;5.33;;;;;;;12.11;100.00;100049.99;1771569;78;22681;-62
2021/09/22 04:16:55;;;;;;;7.73;5.33;;;;;;;12.17;100.00;100051.83;1768607;79;21141;-62
2021/09/22 04:19:22;;;;;;;6.43;5.57;;;;;;;12.51;100.00;100053.47;1768909;79;21221;-63
2021/09/22 04:21:51;;;;;;;6.00;5.30;;;;;;;12.68;100.00;100055.17;1768297;79;21314;-71
2021/09/22 04:24:18;;;;;;;6.70;5.50;;;;;;;12.89;100.00;100062.02;1758794;80;21078;-62
2021/09/22 04:26:44;;;;;;;6.93;5.17;;;;;;;13.09;100.00;100056.25;1761302;80;21729;-61
2021/09/22 04:29:14;;;;;;;5.63;4.67;;;;;;;13.32;100.00;100044.04;1721426;81;21675;-67
2021/09/22 04:32:00;;;;;;;7.93;4.83;;;;;;;13.39;100.00;100050.58;1726609;81;21322;-62
2021/09/22 04:34:45;;;;;;;6.17;5.30;;;;;;;13.41;100.00;100045.13;1693692;82;21325;-60
2021/09/22 04:37:35;;;;;;;7.00;4.30;;;;;;;13.49;100.00;100050.95;1727629;81;21357;-67
2021/09/22 04:40:19;;;;;;;6.83;5.00;;;;;;;13.68;100.00;100054.50;1729340;81;21789;-62
2021/09/22 04:43:01;;;;;;;5.53;4.92;;;;;;;13.68;100.00;100054.50;1646530;85;21414;-68
2021/09/22 04:45:45;;;;;;;5.90;5.00;;;;;;;13.53;100.00;100053.97;1717186;81;20990;-61
2021/09/22 04:48:31;;;;;;;4.93;4.43;;;;;;;13.57;100.00;100057.77;1759322;80;21830;-67
2021/09/22 04:51:16;;;;;;;5.40;4.67;;;;;;;13.81;100.00;100049.19;1761270;80;21376;-62
2021/09/22 04:54:01;;;;;;;5.30;4.80;;;;;;;13.81;100.00;100049.19;1760345;80;22056;-67
2021/09/22 04:56:41;;;;;;;6.23;4.70;;;;;;;14.04;100.00;100053.91;1698750;80;21419;-63
2021/09/22 04:59:28;;;;;;;5.90;4.53;;;;;;;14.12;100.00;100047.61;1731148;81;21508;-59
2021/09/22 05:02:14;;;;;;;6.43;5.10;;;;;;;14.36;100.00;100052.62;1749724;80;21878;-59
2021/09/22 05:04:59;;;;;;;5.20;4.60;;;;;;;14.65;100.00;100043.33;1738749;81;21646;-62
2021/09/22 05:07:45;;;;;;;5.40;4.60;;;;;;;14.65;100.00;100043.33;1740789;81;21383;-64
2021/09/22 05:10:30;;;;;;;8.10;4.77;;;;;;;14.93;100.00;100048.66;1738112;81;21795;-62
2021/09/22 05:13:15;;;;;;;6.93;4.87;;;;;;;14.93;100.00;100048.66;1739336;81;22829;-61
2021/09/22 05:16:00;;;;;;;8.33;5.20;;;;;;;13.96;100.00;100052.05;1738665;81;21662;-60
2021/09/22 05:18:44;;;;;;;5.80;5.20;;;;;;;14.01;100.00;100055.63;1738597;81;22374;-59
2021/09/22 05:21:29;;;;;;;4.63;4.13;;;;;;;13.92;100.00;100049.55;1741822;81;21679;-61
2021/09/22 05:24:15;;;;;;;5.87;4.47;;;;;;;13.92;100.00;100049.55;1739145;81;22195;-61
2021/09/22 05:26:44;;;;;;;4.97;3.97;;;;;;;14.07;100.00;100052.70;1697217;81;22265;-60
2021/09/22 05:29:29;;;;;;;4.93;4.40;;;;;;;13.98;100.00;100049.53;1738153;81;21609;-61
2021/09/22 05:32:15;;;;;;;5.03;3.90;;;;;;;14.10;100.00;100055.70;1741544;81;21976;-62
2021/09/22 05:35:01;;;;;;;5.17;3.70;;;;;;;14.29;100.00;100053.17;1734957;81;22269;-62
2021/09/22 05:37:39;;;;;;;5.43;4.40;;;;;;;14.19;100.00;100056.24;1707674;82;21529;-60
2021/09/22 05:40:26;;;;;;;4.60;3.93;;;;;;;14.42;100.00;100054.37;1692835;83;21737;-64
2021/09/22 05:43:11;;;;;;;4.47;3.70;;;;;;;14.31;100.00;100057.67;1693946;83;21861;-60
2021/09/22 05:45:56;;;;;;;4.67;3.73;;;;;;;14.31;100.00;100057.67;1692695;83;21686;-69
2021/09/22 05:48:24;;;;;;;4.73;3.73;;;;;;;14.31;100.00;100055.05;1649938;83;21809;-67
2021/09/22 05:51:10;;;;;;;4.03;3.13;;;;;;;14.35;100.00;100059.66;1695492;83;22087;-60
2021/09/22 05:53:57;;;;;;;44.77;28.00;;;;;;;14.48;100.00;100056.16;1694687;83;21674;-63
2021/09/22 05:56:45;;;;;;;79.50;42.93;;;;;;;14.41;100.00;100050.66;1691662;83;22261;-62
2021/09/22 05:59:31;;;;;;;15.60;10.13;;;;;;;14.31;100.00;100055.05;1693929;83;21637;-64
2021/09/22 06:02:16;;;;;;;19.43;12.77;;;;;;;14.41;100.00;100059.33;1696394;83;21738;-60
2021/09/22 06:04:54;;;;;;;8.80;6.00;;;;;;;14.44;100.00;100060.73;1667907;83;21730;-68
2021/09/22 06:07:40;;;;;;;4.73;3.53;;;;;;;14.63;100.00;100056.38;1683412;83;21796;-60
2021/09/22 06:10:10;;;;;;;3.93;2.90;;;;;;;15.21;100.00;100059.47;1631165;83;21679;-60
2021/09/22 06:12:42;;;;;;;4.90;3.53;;;;;;;15.24;100.00;100059.55;1691867;83;22161;-62
2021/09/22 06:15:11;;;;;;;3.67;3.00;;;;;;;15.23;100.00;100061.89;1696990;83;21893;-60
2021/09/22 06:17:40;;;;;;;4.57;3.30;;;;;;;15.31;100.00;100053.72;1712050;83;21597;-61
2021/09/22 06:20:10;;;;;;;4.30;3.00;;;;;;;15.43;100.00;100066.92;1702584;83;21070;-67
2021/09/22 06:22:37;;;;;;;5.63;3.30;;;;;;;15.41;100.00;100063.18;1701850;83;23166;-62
2021/09/22 06:25:06;;;;;;;4.40;2.83;;;;;;;15.06;100.00;100069.52;1711381;83;21777;-61
2021/09/22 06:27:34;;;;;;;3.90;2.63;;;;;;;14.90;100.00;100063.52;1725989;82;21616;-60
2021/09/22 06:30:01;;;;;;;7.23;2.80;;;;;;;15.17;100.00;100062.23;1724113;82;22252;-62
2021/09/22 06:32:29;;;;;;;3.97;2.37;;;;;;;15.17;100.00;100062.23;1706943;82;21998;-63
2021/09/22 06:35:10;;;;;;;3.63;2.43;;;;;;;15.06;100.00;100066.89;1701528;83;21580;-61
2021/09/22 06:37:38;;;;;;;4.37;2.87;;;;;;;15.05;100.00;100068.72;1677153;83;21831;-62
2021/09/22 06:40:10;;;;;;;4.10;2.60;;;;;;;15.25;100.00;100071.65;1709866;82;21648;-67
2021/09/22 06:42:37;;;;;;;3.70;2.47;;;;;;;15.22;100.00;100074.19;1708042;82;22849;-60
2021/09/22 06:45:07;;;;;;;3.80;2.50;;;;;;;15.04;100.00;100076.82;1727474;82;21681;-63
2021/09/22 06:47:37;;;;;;;3.73;2.50;;;;;;;14.99;100.00;100077.45;1698941;83;21786;-63
2021/09/22 06:50:07;;;;;;;3.43;2.27;;;;;;;14.20;100.00;100080.63;1686079;83;21725;-63
2021/09/22 06:52:36;;;;;;;3.50;2.20;;;;;;;14.20;100.00;100080.63;1705564;82;21667;-64
2021/09/22 06:55:05;;;;;;;4.00;2.23;;;;;;;14.27;100.00;100078.27;1724493;82;21831;-63
2021/09/22 06:57:33;;;;;;;4.73;2.70;;;;;;;14.39;100.00;100084.15;1721035;82;21755;-72
2021/09/22 07:00:04;;;;;;;3.13;2.03;;;;;;;14.71;100.00;100076.59;1679837;83;21636;-63
2021/09/22 07:02:32;;;;;;;3.47;2.20;;;;;;;15.04;100.00;100074.20;1708666;81;21820;-63
2021/09/22 07:04:59;;;;;;;3.47;2.50;;;;;;;14.99;100.00;100084.00;1736570;81;21469;-63
2021/09/22 07:07:27;;;;;;;4.10;2.27;;;;;;;15.12;100.00;100081.79;1708093;83;22295;-66
2021/09/22 07:09:56;;;;;;;3.20;2.00;;;;;;;15.26;100.00;100038.59;1742060;80;20976;-64
2021/09/22 07:12:25;;;;;;;2.85;2.15;;;;;;;15.49;100.00;100073.91;1730842;80;21011;-64
2021/09/22 07:14:52;;;;;;;2.90;1.67;;;;;;;15.70;100.00;100078.75;1763112;80;21857;-63
2021/09/22 07:17:20;;;;;;;2.57;1.60;;;;;;;15.74;99.87;100075.97;1761301;80;20986;-62
2021/09/22 07:19:47;;;;;;;3.73;2.00;;;;;;;15.74;98.60;100075.97;1757194;80;21774;-62
2021/09/22 07:22:15;;;;;;;3.77;1.80;;;;;;;15.54;99.07;100071.44;1759938;80;21325;-68
2021/09/22 07:24:42;;;;;;;4.93;1.77;;;;;;;15.53;99.64;100073.76;1763271;80;21169;-63
2021/09/22 07:27:09;;;;;;;2.33;1.40;;;;;;;15.48;100.00;100072.31;1762790;80;21061;-65
2021/09/22 07:29:36;;;;;;;2.80;1.43;;;;;;;15.49;99.08;100074.73;1761407;80;21758;-64
2021/09/22 07:32:06;;;;;;;2.53;1.67;;;;;;;15.48;98.13;100072.31;1761506;80;21797;-63
2021/09/22 07:34:35;;;;;;;5.25;1.72;;;;;;;15.55;98.60;100074.35;1761662;80;21558;-70
2021/09/22 07:37:07;;;;;;;3.57;2.00;;;;;;;15.66;100.00;100074.96;1761616;80;21144;-63
2021/09/22 07:39:30;;;;;;;2.47;1.70;;;;;;;15.94;97.48;100076.22;1762158;80;20991;-60
2021/09/22 07:41:57;;;;;;;2.67;1.57;;;;;;;16.21;97.18;100073.55;1763263;80;21010;-61
2021/09/22 07:44:26;;;;;;;3.10;1.90;;;;;;;16.58;89.71;100066.80;1758097;79;21006;-69
2021/09/22 07:46:52;;;;;;;2.63;1.50;;;;;;;16.98;81.26;100064.34;1725238;81;21813;-62
2021/09/22 07:49:19;;;;;;;2.27;1.30;;;;;;;17.16;74.30;100066.55;1757605;79;21162;-62
2021/09/22 07:51:47;;;;;;;2.67;1.27;;;;;;;16.99;70.96;100065.94;1758160;80;21638;-62
2021/09/22 07:54:13;;;;;;;3.93;2.70;;;;;;;17.51;65.62;100059.92;1732315;80;21089;-62
2021/09/22 07:56:40;;;;;;;3.57;2.37;;;;;;;17.68;61.42;100065.25;1742273;80;20966;-63
2021/09/22 07:59:07;;;;;;;3.30;1.30;;;;;;;17.47;60.06;100060.11;1724181;81;21151;-63
2021/09/22 08:01:33;;;;;;;3.77;1.90;;;;;;;17.45;60.74;100070.06;1696364;82;21140;-61
2021/09/22 08:04:00;;;;;;;2.73;1.57;;;;;;;17.60;61.17;100062.46;1722670;81;21062;-60
2021/09/22 08:06:27;;;;;;;2.20;1.40;;;;;;;17.49;60.29;100060.66;1723021;81;21075;-60
2021/09/22 08:08:55;;;;;;;3.73;1.60;;;;;;;17.31;61.27;100066.88;1722821;81;21055;-63
2021/09/22 08:11:21;;;;;;;3.27;1.50;;;;;;;17.07;61.92;100064.78;1727950;81;21062;-61
2021/09/22 08:13:50;;;;;;;2.83;1.60;;;;;;;16.79;64.24;100070.75;1725471;81;21153;-62
2021/09/22 08:16:17;;;;;;;2.57;1.53;;;;;;;16.69;66.19;100069.16;1722269;81;20989;-64
2021/09/22 08:18:46;;;;;;;2.63;1.50;;;;;;;16.90;65.48;100058.63;1731689;81;21061;-61
2021/09/22 08:21:13;;;;;;;3.20;1.80;;;;;;;17.11;63.69;100054.08;1723357;81;20987;-68
2021/09/22 08:23:41;;;;;;;3.50;1.67;;;;;;;17.17;64.03;100059.75;1719996;81;21085;-67
2021/09/22 08:26:08;;;;;;;4.13;2.17;;;;;;;17.20;63.88;100057.98;1718722;81;21120;-67
2021/09/22 08:28:36;;;;;;;4.13;1.83;;;;;;;17.24;65.15;100054.36;1720346;81;21423;-62
2021/09/22 08:31:03;;;;;;;2.60;1.63;;;;;;;17.42;64.93;100052.08;1719636;81;21101;-66
2021/09/22 08:33:30;;;;;;;3.77;1.80;;;;;;;17.56;64.14;100054.73;1720613;81;21085;-64
2021/09/22 08:35:57;;;;;;;4.23;2.20;;;;;;;17.57;62.08;100052.91;1721225;81;21035;-68
2021/09/22 08:38:23;;;;;;;2.47;1.40;;;;;;;17.41;62.15;100053.91;1719015;81;21132;-62
2021/09/22 08:40:52;;;;;;;2.50;1.50;;;;;;;17.56;59.42;100053.42;1721016;81;21112;-61
2021/09/22 08:43:23;;;;;;;3.00;1.60;;;;;;;16.86;61.60;100055.66;1720595;81;21508;-63
2021/09/22 08:45:50;;;;;;;4.08;1.82;;;;;;;16.63;65.29;100062.99;1720150;81;21094;-61
2021/09/22 08:48:17;;;;;;;4.03;1.90;;;;;;;16.74;64.86;100060.91;1720354;81;20995;-60
2021/09/22 08:50:45;;;;;;;2.90;1.63;;;;;;;16.97;64.27;100058.80;1720507;81;21112;-60
2021/09/22 08:53:12;;;;;;;2.67;1.47;;;;;;;17.05;64.75;100058.97;1717954;81;20998;-60
2021/09/22 08:55:39;;;;;;;3.23;1.90;;;;;;;16.61;66.71;100062.41;1720580;81;21100;-60
2021/09/22 08:58:06;;;;;;;2.77;1.30;;;;;;;16.67;68.54;100057.56;1719767;81;21114;-63
2021/09/22 09:00:33;;;;;;;2.83;1.30;;;;;;;16.93;66.47;100055.52;1721585;81;21082;-61
2021/09/22 09:02:59;;;;;;;5.03;1.80;;;;;;;16.97;65.73;100053.53;1723187;81;22268;-67
2021/09/22 09:05:27;;;;;;;2.13;1.17;;;;;;;17.20;65.44;100051.39;1717782;81;21062;-61
2021/09/22 09:07:58;;;;;;;2.80;0.93;;;;;;;17.42;63.57;100044.17;1716685;81;21052;-61
2021/09/22 09:10:32;;;;;;;1.83;1.00;;;;;;;17.53;61.25;100046.50;1720637;81;21045;-63
2021/09/22 09:13:09;;;;;;;2.90;1.27;;;;;;;17.54;60.05;100046.28;1718454;81;21043;-67
2021/09/22 09:15:40;;;;;;;2.73;1.20;;;;;;;17.43;59.17;100047.11;1723126;81;21869;-61
2021/09/22 09:18:21;;;;;;;2.37;1.30;;;;;;;17.25;59.21;100051.48;1723797;81;21080;-61
2021/09/22 09:20:53;;;;;;;2.53;1.33;;;;;;;17.13;59.25;100059.93;1722363;81;21549;-71
2021/09/22 09:23:21;;;;;;;2.50;1.50;;;;;;;16.58;62.68;100068.11;1722511;81;21123;-60
2021/09/22 09:26:00;;;;;;;3.67;1.33;;;;;;;16.47;65.14;100070.20;1722197;81;21090;-60
2021/09/22 09:28:29;;;;;;;2.13;1.20;;;;;;;16.35;66.51;100073.34;1723173;81;21877;-71
2021/09/22 09:31:00;;;;;;;3.50;1.37;;;;;;;16.68;66.79;100072.31;1723109;81;21633;-69
2021/09/22 09:33:53;;;;;;;2.80;1.50;;;;;;;16.91;66.42;100066.28;1723276;81;20948;-60
2021/09/22 09:36:33;;;;;;;2.40;1.40;;;;;;;16.99;63.93;100063.30;1713144;82;21010;-60
2021/09/22 09:39:13;;;;;;;2.53;1.63;;;;;;;16.90;63.98;100066.01;1714456;82;21011;-62
2021/09/22 09:41:49;;;;;;;1.80;1.00;;;;;;;17.08;64.21;100063.75;1712595;82;21907;-60
2021/09/22 09:44:22;;;;;;;2.40;1.47;;;;;;;17.50;61.89;100062.25;1729795;82;22406;-61
2021/09/22 09:46:50;;;;;;;3.67;2.30;;;;;;;17.52;59.95;100054.92;1701142;82;22184;-60
2021/09/22 09:49:23;;;;;;;5.03;2.37;;;;;;;17.49;59.80;100054.06;1708212;82;21054;-61
2021/09/22 09:51:58;;;;;;;4.08;1.72;;;;;;;17.18;60.24;100061.34;1718306;81;21572;-64
2021/09/22 09:54:35;;;;;;;4.73;1.90;;;;;;;17.01;61.17;100069.16;1723993;81;21090;-61
2021/09/22 09:57:15;;;;;;;2.57;1.37;;;;;;;16.73;62.41;100068.99;1722515;81;20976;-63
2021/09/22 09:59:47;;;;;;;3.73;1.87;;;;;;;16.34;65.17;100069.11;1723784;81;21056;-60
2021/09/22 10:02:30;;;;;;;2.40;1.30;;;;;;;16.41;68.18;100069.81;1724348;81;22407;-60
2021/09/22 10:04:58;;;;;;;3.00;1.30;;;;;;;16.26;70.84;100061.83;1723268;81;21083;-70
2021/09/22 10:07:24;;;;;;;3.10;1.80;;;;;;;16.93;70.80;100055.52;1723228;81;22064;-66
2021/09/22 10:09:53;;;;;;;2.37;1.40;;;;;;;17.23;68.64;100051.42;1721622;81;21049;-61
2021/09/22 10:12:21;;;;;;;2.10;1.30;;;;;;;18.08;62.25;100046.78;1712459;82;21316;-64
2021/09/22 10:14:49;;;;;;;2.73;1.40;;;;;;;18.30;57.58;100044.25;1719788;81;21513;-63
2021/09/22 10:17:18;;;;;;;2.20;1.20;;;;;;;18.89;54.25;100043.84;1721436;81;20963;-62
2021/09/22 10:19:47;;;;;;;2.40;1.43;;;;;;;19.04;51.88;100037.45;1752399;80;21556;-62
2021/09/22 10:22:16;;;;;;;2.53;1.27;;;;;;;19.34;50.96;100041.53;1753899;80;21015;-63
2021/09/22 10:24:43;;;;;;;2.40;1.60;;;;;;;19.48;49.26;100038.00;1751017;80;21006;-63
2021/09/22 10:27:17;;;;;;;2.30;1.43;;;;;;;19.30;49.37;100040.42;1680760;83;21082;-73
2021/09/22 10:30:05;;;;;;;2.73;1.50;;;;;;;19.05;49.79;100043.52;1681562;83;21067;-61
2021/09/22 10:32:45;;;;;;;2.10;1.30;;;;;;;18.87;50.36;100040.66;1681420;83;21240;-61
2021/09/22 10:35:29;;;;;;;3.77;1.67;;;;;;;18.87;50.06;100032.21;1691626;82;21066;-62
2021/09/22 10:38:00;;;;;;;2.23;1.30;;;;;;;18.81;49.40;100033.70;1726795;81;21573;-60
2021/09/22 10:40:41;;;;;;;3.90;1.67;;;;;;;18.55;49.42;100038.56;1719200;81;21060;-72
2021/09/22 10:43:25;;;;;;;2.80;1.70;;;;;;;18.26;50.62;100033.89;1727012;81;21159;-66
2021/09/22 10:46:16;;;;;;;4.00;2.20;;;;;;;18.04;51.41;100037.73;1721487;81;21026;-71
2021/09/22 10:48:59;;;;;;;4.53;3.15;;;;;;;17.87;52.40;100041.64;1722940;81;24383;-62
2021/09/22 10:51:39;;;;;;;3.62;2.17;;;;;;;17.62;53.17;100036.69;1720483;81;21675;-68
2021/09/22 10:54:20;;;;;;;2.50;1.27;;;;;;;17.36;54.36;100045.13;1702564;81;21428;-61
2021/09/22 10:56:58;;;;;;;3.27;1.87;;;;;;;17.36;54.25;100043.80;1725143;81;21032;-62
2021/09/22 10:59:39;;;;;;;7.17;4.63;;;;;;;17.03;54.50;100049.16;1723437;81;21700;-69
2021/09/22 11:02:10;;;;;;;5.35;2.02;;;;;;;17.03;55.46;100053.11;1722633;81;21004;-61
2021/09/22 11:05:00;;;;;;;3.75;1.90;;;;;;;17.03;56.39;100048.64;1724894;81;21034;-63
2021/09/22 11:08:00;;;;;;;1.95;1.17;;;;;;;16.98;57.46;100049.86;1696128;82;21082;-61
2021/09/22 11:10:35;;;;;;;3.67;2.37;;;;;;;16.81;57.92;100053.41;1723234;81;21073;-61
2021/09/22 11:13:31;;;;;;;2.43;1.50;;;;;;;16.72;59.66;100056.34;1725573;81;21178;-66
2021/09/22 11:16:15;;;;;;;2.03;1.20;;;;;;;16.89;60.07;100053.85;1723176;81;21064;-64
2021/09/22 11:18:48;;;;;;;2.93;1.50;;;;;;;16.80;60.38;100053.92;1724950;81;21022;-64
2021/09/22 11:21:18;;;;;;;2.23;1.30;;;;;;;16.60;61.47;100059.49;1725932;81;21049;-71
2021/09/22 11:23:46;;;;;;;2.00;1.37;;;;;;;16.69;62.22;100052.85;1729585;81;21010;-66
2021/09/22 11:26:14;;;;;;;2.40;1.70;;;;;;;16.76;62.79;100052.27;1730434;81;20955;-64
2021/09/22 11:28:50;;;;;;;2.47;1.40;;;;;;;16.83;63.15;100055.30;1724488;81;21623;-66
2021/09/22 11:31:18;;;;;;;2.47;1.40;;;;;;;16.88;62.75;100050.14;1724445;81;21650;-71
2021/09/22 11:33:45;;;;;;;2.20;1.13;;;;;;;16.90;61.58;100054.68;1731270;81;21096;-63
2021/09/22 11:36:13;;;;;;;3.00;1.20;;;;;;;16.78;62.13;100054.16;1725454;81;21107;-66
2021/09/22 11:38:41;;;;;;;1.70;1.20;;;;;;;16.70;63.55;100054.45;1724327;81;21646;-62
2021/09/22 11:41:07;;;;;;;2.50;1.10;;;;;;;16.61;63.79;100065.03;1724950;81;20919;-62